This is the latest recevied weather packets stored in our database for station/object R1CBW-13. If no packets are shown the sender has not sent any weather packets the latest 10 day(s).
| Time | Temp. | Humidity | Pressure | Rain* | Wind** | Luminosity | Snow |
|---|---|---|---|---|---|---|---|
| 1777547001 | 7.22° C | 37% | 1019.6 hPa | 0 mm | - | - | - |
| 1777546941 | 6.67° C | 37% | 1019.7 hPa | 0 mm | - | - | - |
| 1777546881 | 6.67° C | 38% | 1019.8 hPa | 0 mm | - | - | - |
| 1777546821 | 7.78° C | 37% | 1019.7 hPa | 0 mm | - | - | - |
| 1777546761 | 7.78° C | 38% | 1019.7 hPa | 0 mm | - | - | - |
| 1777546701 | 7.22° C | 39% | 1019.8 hPa | 0 mm | - | - | - |
| 1777546641 | 6.67° C | 39% | 1019.7 hPa | 0 mm | - | - | - |
| 1777546581 | 6.67° C | 39% | 1019.8 hPa | 0 mm | - | - | - |
| 1777546521 | 7.22° C | 39% | 1019.7 hPa | 0 mm | - | - | - |
| 1777546461 | 6.67° C | 40% | 1019.8 hPa | 0 mm | - | - | - |
| 1777546401 | 6.67° C | 39% | 1019.8 hPa | 0 mm | - | - | - |
| 1777546341 | 6.67° C | 39% | 1019.9 hPa | 0 mm | - | - | - |
| 1777546281 | 6.67° C | 39% | 1019.7 hPa | 0 mm | - | - | - |
| 1777546221 | 6.67° C | 40% | 1019.8 hPa | 0 mm | - | - | - |
| 1777546161 | 6.67° C | 40% | 1019.8 hPa | 0 mm | - | - | - |
| 1777546101 | 6.11° C | 40% | 1019.8 hPa | 0 mm | - | - | - |
| 1777546041 | 6.11° C | 40% | 1019.8 hPa | 0 mm | - | - | - |
| 1777545981 | 6.11° C | 40% | 1019.8 hPa | 0 mm | - | - | - |
| 1777545921 | 6.11° C | 40% | 1019.8 hPa | 0 mm | - | - | - |
| 1777545861 | 6.11° C | 40% | 1019.8 hPa | 0 mm | - | - | - |
| 1777545801 | 6.11° C | 40% | 1019.9 hPa | 0 mm | - | - | - |
| 1777545741 | 6.11° C | 40% | 1020 hPa | 0 mm | - | - | - |
| 1777545681 | 6.67° C | 40% | 1019.8 hPa | 0 mm | - | - | - |
| 1777545621 | 6.11° C | 40% | 1019.9 hPa | 0 mm | - | - | - |
| 1777545561 | 6.67° C | 39% | 1019.7 hPa | 0 mm | - | - | - |
* Rain latest hour (hover to see other rain measurements)
** Current wind speed in m/s (hover to see current wind gust speed)